createdAt,value
2022-11-17T00:02:10.561Z,90
2022-11-17T00:12:10.496Z,90
2022-11-17T00:22:10.511Z,90
2022-11-17T00:32:10.547Z,90
2022-11-17T00:42:10.464Z,90
2022-11-17T00:52:10.425Z,90
2022-11-17T01:02:10.407Z,90
2022-11-17T01:12:10.412Z,90
2022-11-17T01:22:10.411Z,90
2022-11-17T01:32:10.385Z,90
2022-11-17T01:42:10.392Z,90
2022-11-17T01:52:10.345Z,90
2022-11-17T02:02:10.360Z,90
2022-11-17T02:12:10.348Z,90
2022-11-17T02:22:10.349Z,91
2022-11-17T02:32:10.305Z,91
2022-11-17T02:42:10.301Z,91
2022-11-17T02:52:10.250Z,91
2022-11-17T03:02:10.258Z,91
2022-11-17T03:12:10.260Z,91
2022-11-17T03:22:10.203Z,91
2022-11-17T03:32:10.201Z,91
2022-11-17T03:42:10.222Z,91
2022-11-17T03:52:10.168Z,91
2022-11-17T04:02:10.221Z,91
2022-11-17T04:22:10.141Z,91
2022-11-17T04:32:10.126Z,91
2022-11-17T04:42:10.143Z,91
2022-11-17T04:52:10.104Z,92
2022-11-17T05:02:10.104Z,92
2022-11-17T05:12:10.051Z,92
2022-11-17T05:22:10.083Z,92
2022-11-17T05:32:10.029Z,92
2022-11-17T05:42:10.026Z,92
2022-11-17T05:52:10.050Z,92
2022-11-17T06:02:10.000Z,92
2022-11-17T06:12:09.985Z,92
2022-11-17T06:22:13.131Z,92
2022-11-17T06:32:09.951Z,93
2022-11-17T06:42:09.939Z,93
2022-11-17T06:52:09.955Z,93
2022-11-17T07:02:09.919Z,93
2022-11-17T07:12:09.919Z,93
2022-11-17T07:22:09.910Z,93
2022-11-17T07:32:09.899Z,93
2022-11-17T07:42:09.854Z,93
2022-11-17T07:52:09.896Z,93
2022-11-17T08:02:09.845Z,93
2022-11-17T08:12:09.821Z,93
2022-11-17T08:22:09.848Z,93
2022-11-17T08:32:09.793Z,93
2022-11-17T08:42:09.790Z,93
2022-11-17T08:52:09.801Z,92
2022-11-17T09:02:09.760Z,92
2022-11-17T09:12:09.760Z,92
2022-11-17T09:22:09.741Z,92
2022-11-17T09:32:09.742Z,92
2022-11-17T09:42:09.719Z,92
2022-11-17T09:52:09.693Z,92
2022-11-17T10:02:09.735Z,92
2022-11-17T10:12:09.636Z,92
2022-11-17T10:22:09.674Z,91
2022-11-17T10:32:09.621Z,91
2022-11-17T10:42:09.625Z,91
2022-11-17T10:52:09.600Z,90
2022-11-17T11:02:09.557Z,90
2022-11-17T11:12:09.571Z,90
2022-11-17T11:22:09.568Z,90
2022-11-17T11:32:09.525Z,89
2022-11-17T11:42:09.495Z,89
2022-11-17T11:52:09.482Z,89
2022-11-17T12:02:09.468Z,88
2022-11-17T12:12:09.436Z,88
2022-11-17T12:22:09.462Z,88
2022-11-17T12:32:09.395Z,88
2022-11-17T12:42:09.406Z,88
2022-11-17T12:52:09.375Z,88
2022-11-17T13:02:09.349Z,87
2022-11-17T13:12:09.324Z,87
2022-11-17T13:22:09.332Z,87
2022-11-17T13:32:09.293Z,87
2022-11-17T13:42:09.283Z,87
2022-11-17T13:52:09.390Z,87
2022-11-17T14:02:09.229Z,87
2022-11-17T14:12:09.193Z,87
2022-11-17T14:22:09.212Z,86
2022-11-17T14:32:09.163Z,86
2022-11-17T14:42:09.195Z,86
2022-11-17T14:52:09.158Z,86
2022-11-17T15:12:09.150Z,86
2022-11-17T15:22:09.077Z,87
2022-11-17T15:32:09.054Z,87
2022-11-17T15:42:09.084Z,87
2022-11-17T15:52:09.171Z,87
2022-11-17T16:02:09.305Z,87
2022-11-17T16:12:09.623Z,88
2022-11-17T16:22:08.989Z,87
2022-11-17T16:32:08.964Z,87
2022-11-17T16:42:08.978Z,86
2022-11-17T16:52:08.926Z,86
2022-11-17T17:02:08.909Z,86
2022-11-17T17:12:08.920Z,86
2022-11-17T17:22:08.857Z,86
2022-11-17T17:32:08.855Z,86
2022-11-17T17:42:08.887Z,86
2022-11-17T17:52:13.720Z,86
2022-11-17T18:02:08.814Z,86
2022-11-17T18:12:08.805Z,85
2022-11-17T18:22:08.772Z,85
2022-11-17T18:32:08.758Z,85
2022-11-17T18:42:08.759Z,85
2022-11-17T18:52:08.796Z,86
2022-11-17T19:02:08.680Z,88
2022-11-17T19:12:08.685Z,89
2022-11-17T19:22:08.716Z,90
2022-11-17T19:32:08.695Z,91
2022-11-17T19:42:08.627Z,91
2022-11-17T19:52:08.640Z,91
2022-11-17T20:02:08.619Z,92
2022-11-17T20:12:08.608Z,92
2022-11-17T20:22:08.581Z,92
2022-11-17T20:32:08.574Z,92
2022-11-17T20:42:08.538Z,92
2022-11-17T20:52:13.211Z,92
2022-11-17T21:02:08.525Z,92
2022-11-17T21:12:08.506Z,93
2022-11-17T21:22:08.506Z,93
2022-11-17T21:32:08.469Z,93
2022-11-17T21:42:08.449Z,93
2022-11-17T21:52:08.460Z,93
2022-11-17T22:02:08.427Z,93
2022-11-17T22:12:08.403Z,93
2022-11-17T22:22:08.412Z,93
2022-11-17T22:32:08.386Z,93
2022-11-17T22:42:08.355Z,93
2022-11-17T22:52:08.370Z,93
2022-11-17T23:02:08.333Z,93
2022-11-17T23:12:08.301Z,93
2022-11-17T23:22:08.304Z,93
2022-11-17T23:32:08.278Z,93
2022-11-17T23:52:08.292Z,93
